Time;durP1;ratioP1;P1;durP2;ratioP2;P2;SDS_P1;SDS_P2;PMS_P1;PMS_P2;Temp;Humidity;BMP_temperature;BMP_pressure;BME280_temperature;BME280_humidity;BME280_pressure;Samples;Min_cycle;Max_cycle;Signal;HPM_P1;HPM_P2
2022/06/29 00:00:43;;;;;;;5.13;1.02;;;18.10;88.90;;;;;;5016913;28;20464;-81
2022/06/29 00:03:10;;;;;;;2.50;1.00;;;18.10;89.30;;;;;;5034220;28;20038;-81
2022/06/29 00:05:38;;;;;;;2.67;1.20;;;18.00;89.30;;;;;;5039053;28;20041;-81
2022/06/29 00:08:04;;;;;;;3.17;1.00;;;18.00;89.50;;;;;;5026994;28;20038;-81
2022/06/29 00:10:30;;;;;;;2.75;1.00;;;18.00;89.50;;;;;;5026945;28;20037;-81
2022/06/29 00:12:55;;;;;;;2.15;1.10;;;18.00;89.20;;;;;;5042692;28;20398;-82
2022/06/29 00:15:23;;;;;;;2.88;1.02;;;18.10;89.30;;;;;;5029214;28;20173;-82
2022/06/29 00:17:49;;;;;;;3.28;1.02;;;18.10;89.10;;;;;;5038132;28;20033;-81
2022/06/29 00:20:15;;;;;;;2.85;0.90;;;18.10;88.80;;;;;;5035973;28;20066;-81
2022/06/29 00:22:42;;;;;;;6.18;1.15;;;18.10;88.70;;;;;;5043123;28;20411;-81
2022/06/29 00:25:09;;;;;;;2.75;1.20;;;18.00;88.80;;;;;;5025230;28;20049;-81
2022/06/29 00:27:35;;;;;;;3.13;1.35;;;18.00;88.90;;;;;;5035173;28;20040;-81
2022/06/29 00:30:02;;;;;;;2.83;0.80;;;18.00;89.00;;;;;;5033616;28;20029;-82
2022/06/29 00:32:28;;;;;;;3.13;0.90;;;18.00;88.80;;;;;;5037687;28;20228;-81
2022/06/29 00:34:54;;;;;;;3.42;1.00;;;18.00;88.60;;;;;;5022894;28;20060;-81
2022/06/29 00:37:22;;;;;;;2.75;1.15;;;18.00;88.30;;;;;;5040303;28;22439;-81
2022/06/29 00:39:48;;;;;;;2.47;1.00;;;18.00;88.50;;;;;;5036183;28;20037;-81
2022/06/29 00:42:14;;;;;;;2.13;0.88;;;18.00;88.60;;;;;;5041574;28;20461;-81
2022/06/29 00:44:39;;;;;;;4.47;1.20;;;18.00;88.60;;;;;;5034868;28;20044;-80
2022/06/29 00:47:06;;;;;;;2.67;0.63;;;18.00;88.80;;;;;;5039894;28;20122;-81
2022/06/29 00:49:33;;;;;;;3.13;0.90;;;17.90;88.80;;;;;;5038014;28;20064;-81
2022/06/29 00:52:07;;;;;;;2.30;0.80;;;17.90;89.00;;;;;;5032608;28;20091;-82
2022/06/29 00:54:45;;;;;;;2.78;0.80;;;17.80;89.40;;;;;;5041276;28;20143;-83
2022/06/29 00:57:23;;;;;;;4.20;1.00;;;17.80;89.50;;;;;;5034390;28;20148;-80
2022/06/29 00:59:51;;;;;;;4.28;1.08;;;17.70;89.90;;;;;;5037428;28;20041;-82
2022/06/29 01:02:19;;;;;;;1.60;0.70;;;17.70;89.90;;;;;;5025081;28;20037;-81
2022/06/29 01:04:46;;;;;;;1.92;0.82;;;17.70;90.00;;;;;;5033359;28;20120;-81
2022/06/29 01:07:17;;;;;;;4.60;0.85;;;17.70;90.10;;;;;;5042283;28;20141;-81
2022/06/29 01:09:44;;;;;;;3.25;0.80;;;17.60;90.30;;;;;;5038506;28;20033;-82
2022/06/29 01:12:13;;;;;;;2.08;0.82;;;17.60;90.40;;;;;;5025840;28;20051;-82
2022/06/29 01:14:43;;;;;;;2.10;0.80;;;17.60;90.50;;;;;;5035495;28;20143;-81
2022/06/29 01:17:13;;;;;;;2.17;1.05;;;17.50;90.80;;;;;;5038385;28;20052;-81
2022/06/29 01:19:40;;;;;;;1.95;0.80;;;17.50;90.70;;;;;;5041216;28;20395;-81
2022/06/29 01:22:08;;;;;;;1.75;0.90;;;17.50;90.90;;;;;;5028191;28;20044;-81
2022/06/29 01:24:34;;;;;;;3.95;1.08;;;17.40;91.00;;;;;;5057126;28;20564;-81
2022/06/29 01:26:59;;;;;;;1.55;0.75;;;17.40;91.10;;;;;;5037584;28;20037;-82
2022/06/29 01:29:27;;;;;;;3.25;0.90;;;17.40;91.20;;;;;;5037960;28;20029;-81
2022/06/29 01:31:56;;;;;;;2.55;0.95;;;17.40;91.20;;;;;;5034979;28;20072;-81
2022/06/29 01:34:24;;;;;;;1.45;0.85;;;17.40;91.20;;;;;;5032637;28;20483;-81
2022/06/29 01:36:49;;;;;;;2.90;1.00;;;17.40;91.20;;;;;;5000513;28;20136;-81
2022/06/29 01:39:15;;;;;;;3.97;0.70;;;17.40;91.30;;;;;;4996891;28;20030;-82
2022/06/29 01:41:41;;;;;;;1.55;0.80;;;17.40;91.20;;;;;;4985537;28;20050;-81
2022/06/29 01:44:07;;;;;;;5.32;1.27;;;17.50;91.10;;;;;;5001966;28;20124;-81
2022/06/29 01:46:32;;;;;;;3.55;0.90;;;17.50;91.10;;;;;;5005647;28;20042;-81
2022/06/29 01:48:58;;;;;;;2.88;0.70;;;17.50;91.10;;;;;;5021334;28;20048;-81
2022/06/29 01:51:24;;;;;;;4.78;0.80;;;17.50;91.10;;;;;;4997429;28;20041;-82
2022/06/29 01:53:50;;;;;;;2.38;0.95;;;17.50;91.10;;;;;;4999129;28;20029;-82
2022/06/29 01:56:15;;;;;;;2.38;0.90;;;17.50;91.00;;;;;;4986168;28;20042;-81
2022/06/29 01:58:41;;;;;;;1.98;0.90;;;17.50;91.00;;;;;;5005012;28;20518;-81
2022/06/29 02:01:07;;;;;;;2.90;1.10;;;17.50;91.00;;;;;;4985295;28;20044;-81
2022/06/29 02:03:33;;;;;;;2.47;1.30;;;17.60;90.80;;;;;;4997061;28;20068;-82
2022/06/29 02:05:58;;;;;;;2.90;1.05;;;17.60;90.70;;;;;;4989952;28;20571;-82
2022/06/29 02:08:27;;;;;;;3.28;0.85;;;17.60;90.80;;;;;;5016890;28;20487;-82
2022/06/29 02:10:55;;;;;;;3.80;0.90;;;17.60;90.90;;;;;;4999804;28;20036;-81
2022/06/29 02:13:21;;;;;;;3.50;0.85;;;17.60;90.90;;;;;;4987741;28;20042;-82
2022/06/29 02:15:50;;;;;;;2.83;1.15;;;17.60;91.00;;;;;;4970707;28;20431;-82
2022/06/29 02:18:15;;;;;;;2.45;1.00;;;17.60;91.10;;;;;;4998759;28;20045;-82
2022/06/29 02:20:41;;;;;;;3.00;1.10;;;17.60;91.10;;;;;;4997153;28;20340;-82
2022/06/29 02:23:07;;;;;;;3.42;0.80;;;17.60;91.00;;;;;;4996801;28;20033;-81
2022/06/29 02:25:32;;;;;;;2.67;1.13;;;17.60;91.00;;;;;;5004354;28;20128;-83
2022/06/29 02:27:58;;;;;;;1.92;1.20;;;17.50;91.20;;;;;;4983338;28;20065;-82
2022/06/29 02:34:43;;;;;;;1.30;0.82;;;17.50;91.40;;;;;;5014965;28;20049;-81
2022/06/29 02:35:54;;;;;;;2.20;0.80;;;17.40;91.70;;;;;;5024414;28;20057;-81
2022/06/29 02:38:19;;;;;;;2.72;0.93;;;17.40;91.80;;;;;;4994140;28;20148;-82
2022/06/29 02:40:45;;;;;;;2.40;0.93;;;17.40;91.80;;;;;;5016679;28;20038;-80
2022/06/29 02:43:11;;;;;;;3.13;1.20;;;17.40;92.00;;;;;;5001734;28;20065;-81
2022/06/29 02:45:36;;;;;;;4.90;1.20;;;17.40;92.00;;;;;;4987218;28;20394;-81
2022/06/29 02:48:02;;;;;;;2.10;0.95;;;17.40;91.90;;;;;;5009837;28;20030;-81
2022/06/29 02:50:28;;;;;;;2.45;1.00;;;17.30;91.90;;;;;;4990732;28;20120;-82
2022/06/29 02:52:54;;;;;;;3.90;1.58;;;17.30;92.00;;;;;;4987043;28;20040;-82
2022/06/29 02:55:21;;;;;;;2.30;1.00;;;17.30;92.00;;;;;;5000685;28;20046;-82
2022/06/29 02:57:47;;;;;;;3.35;1.45;;;17.30;92.20;;;;;;5017480;28;20048;-81
2022/06/29 03:00:14;;;;;;;2.35;0.80;;;17.20;92.20;;;;;;5005567;28;20410;-81
2022/06/29 03:02:39;;;;;;;2.85;1.15;;;17.20;92.40;;;;;;5005517;28;20037;-82
2022/06/29 03:05:06;;;;;;;1.77;1.20;;;17.20;92.50;;;;;;5000499;28;20359;-82
2022/06/29 03:07:32;;;;;;;2.95;1.45;;;17.10;92.60;;;;;;4999918;28;20196;-80
2022/06/29 03:09:58;;;;;;;2.95;1.30;;;17.10;92.70;;;;;;5007358;28;20089;-82
2022/06/29 03:12:23;;;;;;;2.78;1.38;;;17.00;92.80;;;;;;4987943;28;20058;-82
2022/06/29 03:14:49;;;;;;;4.63;1.15;;;17.00;92.90;;;;;;5022113;28;20112;-81
2022/06/29 03:17:15;;;;;;;2.70;1.42;;;17.00;93.00;;;;;;5003845;28;20075;-82
2022/06/29 03:19:41;;;;;;;3.10;1.20;;;16.90;93.00;;;;;;5022821;28;20478;-81
2022/06/29 03:22:06;;;;;;;4.07;1.48;;;16.90;93.10;;;;;;4983958;28;20124;-81
2022/06/29 03:24:32;;;;;;;3.15;1.30;;;16.90;93.30;;;;;;5008635;28;20486;-80
2022/06/29 03:26:58;;;;;;;3.03;1.20;;;16.90;93.30;;;;;;5002631;28;20041;-80
2022/06/29 03:29:24;;;;;;;2.05;1.20;;;16.90;93.50;;;;;;4981461;28;20042;-80
2022/06/29 03:31:49;;;;;;;3.70;1.30;;;16.80;93.50;;;;;;5003781;28;20329;-81
2022/06/29 03:34:15;;;;;;;3.13;1.50;;;16.80;93.80;;;;;;5022822;28;20540;-82
2022/06/29 03:36:42;;;;;;;2.28;1.15;;;16.70;93.80;;;;;;4991370;28;20410;-81
2022/06/29 03:39:07;;;;;;;3.50;1.25;;;16.70;93.90;;;;;;5001857;28;20037;-80
2022/06/29 03:41:33;;;;;;;5.30;1.38;;;16.70;94.00;;;;;;4990143;28;20033;-80
2022/06/29 03:43:59;;;;;;;4.15;1.40;;;16.70;94.00;;;;;;4988641;28;20107;-80
2022/06/29 03:46:24;;;;;;;2.53;1.23;;;16.70;94.20;;;;;;5005141;28;20049;-80
2022/06/29 03:48:50;;;;;;;3.50;1.25;;;16.60;94.20;;;;;;5006898;28;20033;-82
2022/06/29 03:51:16;;;;;;;3.50;1.30;;;16.50;94.50;;;;;;5007537;28;20100;-80
2022/06/29 03:53:41;;;;;;;3.55;1.60;;;16.50;94.50;;;;;;5012760;28;20407;-80
2022/06/29 03:56:07;;;;;;;2.75;1.83;;;16.50;94.80;;;;;;5006330;28;20044;-80
2022/06/29 03:58:33;;;;;;;2.95;1.60;;;16.50;94.90;;;;;;5003129;28;20403;-81
2022/06/29 04:00:58;;;;;;;3.95;1.65;;;16.50;94.90;;;;;;4986342;28;20060;-81
2022/06/29 04:03:24;;;;;;;4.07;1.80;;;16.50;95.00;;;;;;5005278;28;20052;-81
2022/06/29 04:05:50;;;;;;;2.25;1.33;;;16.50;95.00;;;;;;4985103;28;20044;-80
2022/06/29 04:08:16;;;;;;;2.13;1.60;;;16.50;95.10;;;;;;4992022;28;20498;-81
2022/06/29 04:10:42;;;;;;;4.93;2.00;;;16.50;95.00;;;;;;4994929;28;20033;-82
2022/06/29 04:13:08;;;;;;;3.17;1.73;;;16.50;95.10;;;;;;5002408;28;20040;-80
2022/06/29 04:15:34;;;;;;;3.45;1.73;;;16.50;95.00;;;;;;4987628;28;20057;-80
2022/06/29 04:18:01;;;;;;;2.40;1.33;;;16.50;95.00;;;;;;5003663;28;20071;-82
2022/06/29 04:23:11;;;;;;;3.70;1.55;;;16.50;95.00;;;;;;5020383;28;20081;-80
2022/06/29 04:25:36;;;;;;;3.75;1.70;;;16.50;95.10;;;;;;5020113;28;20088;-80
2022/06/29 04:28:02;;;;;;;3.33;1.67;;;16.50;95.10;;;;;;5006956;28;20050;-81
2022/06/29 04:30:28;;;;;;;4.00;1.85;;;16.50;95.20;;;;;;5000544;28;20045;-80
2022/06/29 04:32:54;;;;;;;2.38;1.73;;;16.50;95.20;;;;;;4987139;28;20034;-80
2022/06/29 04:35:21;;;;;;;2.88;1.50;;;16.60;95.20;;;;;;5002236;28;20477;-82
2022/06/29 04:37:46;;;;;;;7.63;1.85;;;16.60;95.10;;;;;;5020372;28;20471;-80
2022/06/29 04:40:13;;;;;;;3.90;1.67;;;16.60;95.10;;;;;;5033504;28;20052;-80
2022/06/29 04:42:38;;;;;;;5.78;1.70;;;16.70;95.10;;;;;;5043311;28;20037;-80
2022/06/29 04:45:04;;;;;;;3.28;2.17;;;16.70;95.00;;;;;;5037473;28;20052;-80
2022/06/29 04:47:30;;;;;;;2.42;1.50;;;16.80;95.00;;;;;;5029382;28;20528;-80
2022/06/29 04:49:56;;;;;;;2.50;1.33;;;16.80;94.90;;;;;;5023050;28;20196;-79
2022/06/29 04:52:24;;;;;;;3.72;1.75;;;16.90;94.90;;;;;;5040920;28;20055;-80
2022/06/29 04:54:50;;;;;;;1.85;1.50;;;16.90;94.80;;;;;;5023743;28;20067;-80
2022/06/29 04:57:15;;;;;;;5.97;1.63;;;16.90;94.70;;;;;;5036462;28;20068;-80
2022/06/29 04:59:41;;;;;;;5.82;2.13;;;17.00;94.80;;;;;;5036895;28;20042;-81
2022/06/29 05:02:06;;;;;;;5.20;1.95;;;17.00;94.80;;;;;;5039380;28;20509;-81
2022/06/29 05:04:32;;;;;;;3.00;1.50;;;17.10;94.70;;;;;;5037876;28;20038;-80
2022/06/29 05:06:58;;;;;;;4.57;2.28;;;17.10;94.60;;;;;;5039273;28;20371;-79
2022/06/29 05:09:23;;;;;;;2.85;1.80;;;17.20;94.50;;;;;;5032328;28;20083;-80
2022/06/29 05:11:49;;;;;;;3.75;1.90;;;17.20;94.40;;;;;;5036474;28;20073;-80
2022/06/29 05:14:15;;;;;;;4.05;1.98;;;17.30;94.30;;;;;;5035627;28;20043;-81
2022/06/29 05:16:41;;;;;;;2.30;1.73;;;17.30;94.10;;;;;;5016292;28;20101;-82
2022/06/29 05:19:06;;;;;;;3.45;1.75;;;17.40;94.00;;;;;;5038774;28;20063;-81
2022/06/29 05:21:32;;;;;;;5.60;2.90;;;17.40;93.90;;;;;;5024206;28;20036;-81
2022/06/29 05:23:58;;;;;;;3.75;1.73;;;17.50;93.80;;;;;;5035668;28;20033;-80
2022/06/29 05:26:24;;;;;;;3.65;1.80;;;17.60;93.80;;;;;;5021706;28;20052;-80
2022/06/29 05:28:51;;;;;;;4.75;1.98;;;17.60;93.80;;;;;;5038393;28;20111;-80
2022/06/29 05:31:17;;;;;;;3.50;1.80;;;17.70;93.50;;;;;;5040911;28;20551;-82
2022/06/29 05:33:43;;;;;;;2.72;1.90;;;17.80;93.40;;;;;;5036330;28;20076;-80
2022/06/29 05:36:10;;;;;;;3.47;1.90;;;17.80;93.40;;;;;;5032650;28;20179;-80
2022/06/29 05:38:36;;;;;;;3.38;2.17;;;17.90;93.20;;;;;;5040117;28;20068;-81
2022/06/29 05:41:03;;;;;;;4.82;1.92;;;18.00;93.20;;;;;;5023930;28;20041;-82
2022/06/29 05:43:30;;;;;;;3.28;1.90;;;18.00;93.00;;;;;;5041943;28;20052;-81
2022/06/29 05:45:57;;;;;;;3.83;1.88;;;18.10;92.90;;;;;;5005110;28;20046;-81
2022/06/29 05:48:22;;;;;;;3.15;2.20;;;18.20;92.80;;;;;;4999651;28;20069;-81
2022/06/29 05:50:48;;;;;;;5.28;2.30;;;18.20;92.60;;;;;;4987880;28;20066;-81
2022/06/29 05:53:14;;;;;;;6.20;2.20;;;18.30;92.50;;;;;;5004269;28;20488;-81
2022/06/29 05:55:40;;;;;;;3.78;1.92;;;18.40;92.40;;;;;;4990746;28;20058;-81
2022/06/29 05:58:07;;;;;;;3.67;2.20;;;18.50;92.30;;;;;;4999411;28;20053;-81
2022/06/29 06:00:32;;;;;;;3.80;1.90;;;18.60;92.10;;;;;;5015414;28;20061;-81
2022/06/29 06:02:58;;;;;;;4.60;1.67;;;18.70;92.10;;;;;;5005159;28;20037;-76
2022/06/29 06:05:24;;;;;;;3.63;1.98;;;18.80;91.40;;;;;;5000568;28;20132;-77
2022/06/29 06:07:50;;;;;;;3.08;1.67;;;19.00;91.20;;;;;;4996443;28;20415;-77
2022/06/29 06:10:16;;;;;;;2.53;1.40;;;19.10;91.00;;;;;;5002321;28;20034;-77
2022/06/29 06:12:42;;;;;;;2.30;1.50;;;19.20;90.80;;;;;;4998863;28;20448;-77
2022/06/29 06:15:08;;;;;;;3.58;1.95;;;19.30;90.40;;;;;;4999579;28;20100;-77
2022/06/29 06:17:36;;;;;;;4.07;1.58;;;19.40;90.20;;;;;;4999690;28;20040;-77
2022/06/29 06:20:03;;;;;;;3.60;1.88;;;19.50;90.10;;;;;;4994596;28;20050;-78
2022/06/29 06:22:28;;;;;;;3.22;2.00;;;19.50;89.90;;;;;;4998511;28;20265;-77
2022/06/29 06:24:54;;;;;;;2.78;1.30;;;19.60;89.60;;;;;;5005404;28;20160;-77
2022/06/29 06:27:20;;;;;;;3.92;1.80;;;19.70;89.20;;;;;;4996711;28;20114;-78
2022/06/29 06:29:46;;;;;;;2.13;1.58;;;19.80;88.60;;;;;;5001593;28;20274;-77
2022/06/29 06:32:12;;;;;;;2.60;1.67;;;19.90;87.90;;;;;;5007158;28;20046;-78
2022/06/29 06:34:38;;;;;;;2.10;1.13;;;19.90;87.50;;;;;;4985080;28;20790;-77
2022/06/29 06:37:04;;;;;;;1.95;1.25;;;20.00;86.80;;;;;;5004424;28;20180;-76
2022/06/29 06:39:30;;;;;;;2.65;1.60;;;20.10;86.60;;;;;;5005352;28;20488;-76
2022/06/29 06:41:55;;;;;;;3.40;1.58;;;20.20;86.20;;;;;;4997744;28;20040;-77
2022/06/29 06:44:21;;;;;;;3.08;1.65;;;20.20;86.40;;;;;;5002219;28;20068;-76
2022/06/29 06:46:48;;;;;;;2.42;1.30;;;20.30;85.80;;;;;;4999239;28;20352;-77
2022/06/29 06:49:23;;;;;;;1.90;1.10;;;20.40;85.20;;;;;;4999670;28;20117;-76
2022/06/29 06:51:52;;;;;;;3.38;1.67;;;20.40;84.60;;;;;;4980955;28;20033;-77
2022/06/29 06:54:18;;;;;;;2.60;1.75;;;20.50;84.70;;;;;;4995370;28;20030;-76
2022/06/29 06:56:44;;;;;;;5.38;1.42;;;20.60;84.50;;;;;;4980493;28;20038;-77
2022/06/29 06:59:10;;;;;;;2.63;1.70;;;20.70;85.00;;;;;;5000343;28;20479;-77
2022/06/29 07:01:36;;;;;;;4.85;1.85;;;20.80;84.00;;;;;;5003173;28;20037;-76
2022/06/29 07:04:02;;;;;;;3.70;2.58;;;20.90;83.40;;;;;;5005774;28;20052;-80
2022/06/29 07:06:27;;;;;;;5.03;1.70;;;20.90;82.50;;;;;;4989545;28;20052;-77
2022/06/29 07:08:54;;;;;;;2.83;1.70;;;21.00;82.40;;;;;;5002777;28;20042;-77
2022/06/29 07:11:20;;;;;;;2.47;1.33;;;21.00;81.70;;;;;;5001759;28;20080;-78
2022/06/29 07:13:46;;;;;;;2.30;1.05;;;21.10;81.90;;;;;;4999413;28;20049;-77
2022/06/29 07:16:12;;;;;;;2.97;1.58;;;21.20;81.70;;;;;;4999894;28;20038;-78
2022/06/29 07:18:38;;;;;;;3.03;1.63;;;21.30;80.20;;;;;;4998311;28;20128;-77
2022/06/29 07:21:04;;;;;;;2.13;1.40;;;21.30;78.70;;;;;;5000591;28;20068;-77
2022/06/29 07:23:30;;;;;;;7.88;1.77;;;21.20;78.20;;;;;;4998719;28;20047;-76
2022/06/29 07:25:56;;;;;;;2.15;1.20;;;21.30;77.60;;;;;;4978766;28;20384;-77
2022/06/29 07:28:22;;;;;;;3.65;1.55;;;21.30;78.70;;;;;;4997356;28;20037;-79
2022/06/29 07:30:48;;;;;;;4.00;1.60;;;21.40;77.10;;;;;;5002650;28;20506;-78
2022/06/29 07:33:14;;;;;;;5.80;1.52;;;21.50;76.00;;;;;;5004394;28;20041;-79
2022/06/29 07:35:40;;;;;;;4.03;1.50;;;21.60;75.50;;;;;;5000738;28;20062;-77
2022/06/29 07:38:07;;;;;;;3.42;1.10;;;21.60;75.10;;;;;;5003914;28;20121;-76
2022/06/29 07:40:33;;;;;;;2.78;0.93;;;21.70;76.20;;;;;;4985664;28;20046;-77
2022/06/29 07:42:59;;;;;;;4.22;1.38;;;21.90;76.70;;;;;;5005136;28;20131;-77
2022/06/29 07:45:25;;;;;;;3.15;1.50;;;22.00;75.70;;;;;;4979277;28;20169;-80
2022/06/29 07:47:51;;;;;;;1.90;1.20;;;22.10;75.20;;;;;;5005288;28;20120;-77
2022/06/29 07:50:17;;;;;;;1.88;1.20;;;22.30;74.70;;;;;;5003218;28;20050;-77
2022/06/29 07:52:43;;;;;;;3.25;1.15;;;22.30;74.60;;;;;;5002763;28;20208;-78
2022/06/29 07:55:09;;;;;;;1.50;1.00;;;22.40;74.30;;;;;;4987882;28;20080;-78
2022/06/29 07:57:36;;;;;;;4.47;1.40;;;22.50;73.10;;;;;;4999235;28;20132;-78
2022/06/29 08:00:04;;;;;;;1.80;0.80;;;22.50;70.60;;;;;;4972802;28;20044;-81
2022/06/29 08:02:30;;;;;;;2.65;1.48;;;22.60;71.00;;;;;;4986930;28;20039;-76
2022/06/29 08:04:56;;;;;;;1.60;0.90;;;22.60;70.50;;;;;;4985041;28;20334;-77
2022/06/29 08:07:22;;;;;;;1.73;1.00;;;22.80;71.40;;;;;;5001377;28;20056;-77
2022/06/29 08:09:48;;;;;;;5.03;1.63;;;22.90;72.10;;;;;;5001112;28;20480;-77
2022/06/29 08:12:15;;;;;;;3.47;1.02;;;23.00;70.40;;;;;;5002504;28;20075;-77
2022/06/29 08:14:41;;;;;;;3.30;1.00;;;23.10;70.50;;;;;;4984064;28;20391;-76
2022/06/29 08:17:07;;;;;;;1.35;0.80;;;23.20;70.90;;;;;;4988033;28;20128;-78
2022/06/29 08:20:03;;;;;;;2.38;1.00;;;23.30;70.20;;;;;;5145951;27;20717;-75
2022/06/29 08:22:29;;;;;;;5.78;0.95;;;23.40;70.70;;;;;;5121075;27;20492;-76
2022/06/29 08:24:55;;;;;;;2.60;1.17;;;23.40;70.50;;;;;;5119173;27;20050;-76
2022/06/29 08:27:22;;;;;;;1.65;0.80;;;23.60;69.60;;;;;;5055967;22;20069;-48
2022/06/29 08:29:49;;;;;;;3.92;1.20;;;23.70;69.50;;;;;;5042448;28;20207;-44
2022/06/29 08:32:14;;;;;;;4.55;1.10;;;23.70;68.50;;;;;;5041726;28;20040;-43
2022/06/29 08:34:40;;;;;;;2.88;1.00;;;23.80;68.30;;;;;;5044159;28;20033;-43
2022/06/29 08:37:06;;;;;;;3.03;0.93;;;23.90;67.90;;;;;;5045574;28;20124;-46
2022/06/29 08:39:33;;;;;;;4.50;0.95;;;24.00;67.50;;;;;;5041335;28;20052;-45
2022/06/29 08:42:04;;;;;;;2.53;1.30;;;24.10;67.00;;;;;;5042010;28;20041;-45
2022/06/29 08:44:33;;;;;;;4.03;1.17;;;24.20;64.50;;;;;;5040300;28;20049;-47
2022/06/29 08:47:08;;;;;;;2.35;1.15;;;24.30;62.70;;;;;;5041925;28;20043;-43
2022/06/29 08:49:34;;;;;;;3.72;1.20;;;24.40;61.50;;;;;;5043027;28;20040;-44
2022/06/29 08:52:04;;;;;;;2.30;1.10;;;24.40;59.80;;;;;;5040237;28;20037;-43
2022/06/29 08:54:31;;;;;;;3.58;1.05;;;24.50;59.80;;;;;;5044141;28;20453;-44
2022/06/29 08:56:58;;;;;;;2.50;0.90;;;24.50;60.00;;;;;;5043500;28;20041;-44
2022/06/29 08:59:24;;;;;;;1.52;1.00;;;24.60;59.40;;;;;;5044108;28;20037;-44
2022/06/29 09:01:51;;;;;;;2.38;1.00;;;24.80;59.70;;;;;;5041666;28;20053;-44
2022/06/29 09:04:17;;;;;;;4.57;1.13;;;24.90;59.80;;;;;;5039149;28;20037;-47
2022/06/29 09:06:45;;;;;;;2.70;0.90;;;25.00;59.30;;;;;;5045302;28;20454;-43
2022/06/29 09:09:14;;;;;;;2.13;0.90;;;25.10;59.00;;;;;;5042274;28;20045;-46
2022/06/29 09:11:43;;;;;;;1.80;1.00;;;25.20;57.30;;;;;;5039144;28;20044;-44
2022/06/29 09:14:16;;;;;;;2.13;1.10;;;25.30;53.80;;;;;;5042577;28;20550;-44
2022/06/29 09:17:01;;;;;;;4.07;0.90;;;25.30;52.50;;;;;;5001966;28;20042;-45
2022/06/29 09:19:47;;;;;;;1.17;0.68;;;25.40;53.80;;;;;;4981921;28;20042;-45
2022/06/29 09:22:13;;;;;;;1.23;0.82;;;25.50;52.30;;;;;;5000411;28;20034;-44
2022/06/29 09:24:39;;;;;;;2.13;1.15;;;25.60;52.50;;;;;;4996631;28;20549;-46
2022/06/29 09:27:07;;;;;;;2.85;1.00;;;25.70;51.60;;;;;;4998752;28;20057;-44
2022/06/29 09:29:44;;;;;;;2.20;0.80;;;25.80;49.70;;;;;;4991071;28;20039;-43
2022/06/29 09:32:15;;;;;;;1.75;0.80;;;25.80;49.10;;;;;;4986844;28;20109;-45
2022/06/29 09:34:42;;;;;;;1.52;0.70;;;25.90;48.20;;;;;;4981501;28;20567;-44
2022/06/29 09:37:12;;;;;;;2.55;0.93;;;26.00;48.50;;;;;;5001603;28;20046;-44
2022/06/29 09:39:40;;;;;;;3.90;1.20;;;26.20;49.20;;;;;;4989734;28;20539;-45
2022/06/29 09:42:08;;;;;;;1.25;0.80;;;26.30;47.80;;;;;;5001148;28;20034;-46
2022/06/29 09:44:34;;;;;;;4.95;1.10;;;26.40;48.10;;;;;;4978285;28;20108;-45
2022/06/29 09:47:04;;;;;;;1.77;0.95;;;26.60;48.00;;;;;;4986810;28;20467;-47
2022/06/29 09:49:33;;;;;;;2.00;1.58;;;26.80;48.00;;;;;;4984631;28;20041;-48
2022/06/29 09:52:00;;;;;;;2.05;1.02;;;27.00;48.50;;;;;;4985904;28;20053;-44
2022/06/29 09:54:37;;;;;;;3.88;1.23;;;27.30;48.90;;;;;;4988458;28;20507;-45
2022/06/29 09:57:05;;;;;;;2.13;1.00;;;27.50;47.30;;;;;;4990805;28;20535;-44
2022/06/29 10:02:34;;;;;;;1.70;0.80;;;27.50;45.90;;;;;;4985134;28;20133;-45
2022/06/29 10:05:06;;;;;;;1.13;0.80;;;27.40;45.40;;;;;;4979481;28;20042;-44
2022/06/29 10:07:34;;;;;;;2.08;0.90;;;27.10;45.70;;;;;;4979922;28;20081;-47
2022/06/29 10:10:00;;;;;;;4.75;1.45;;;26.90;45.80;;;;;;4980795;28;20057;-44
2022/06/29 10:15:41;;;;;;;1.02;0.73;;;26.90;44.60;;;;;;5000306;28;20046;-47
2022/06/29 10:18:19;;;;;;;1.98;0.70;;;27.20;43.70;;;;;;4997674;28;20074;-43
2022/06/29 10:20:46;;;;;;;1.52;0.82;;;27.40;44.00;;;;;;4992088;28;20197;-46
2022/06/29 10:23:46;;;;;;;1.85;0.90;;;27.70;43.90;;;;;;4987792;28;20125;-44
2022/06/29 10:26:27;;;;;;;2.80;0.75;;;27.80;43.10;;;;;;4996590;28;20120;-46
2022/06/29 10:28:54;;;;;;;3.67;1.13;;;28.00;42.10;;;;;;4991564;28;20076;-44
2022/06/29 10:32:04;;;;;;;1.38;0.80;;;28.00;41.10;;;;;;4985008;28;20087;-43
2022/06/29 10:34:41;;;;;;;1.40;0.70;;;27.90;41.60;;;;;;4990535;28;20045;-43
2022/06/29 10:37:13;;;;;;;2.25;1.00;;;27.90;41.80;;;;;;4985091;28;20494;-43
2022/06/29 10:39:54;;;;;;;1.48;0.98;;;27.90;41.20;;;;;;4987734;28;20062;-44
2022/06/29 10:45:32;;;;;;;2.63;0.90;;;27.70;41.00;;;;;;4992258;28;20058;-44
2022/06/29 10:48:05;;;;;;;1.38;0.88;;;27.60;41.80;;;;;;4991835;28;20095;-50
2022/06/29 10:50:31;;;;;;;8.93;1.20;;;27.50;41.10;;;;;;4989567;28;20043;-46
2022/06/29 10:53:07;;;;;;;2.38;0.90;;;27.40;40.70;;;;;;4982271;28;20031;-47
2022/06/29 10:55:35;;;;;;;1.27;0.77;;;27.50;40.50;;;;;;4990596;28;20674;-46
2022/06/29 10:58:02;;;;;;;2.60;0.90;;;27.70;40.40;;;;;;4987107;28;20057;-44
2022/06/29 11:00:40;;;;;;;2.72;0.90;;;27.80;39.70;;;;;;4990339;28;20068;-44
2022/06/29 11:03:16;;;;;;;2.90;0.80;;;27.90;37.50;;;;;;4990450;28;20568;-43
2022/06/29 11:14:00;;;;;;;1.63;1.00;;;28.50;37.50;;;;;;4988002;28;20108;-45
2022/06/29 11:16:46;;;;;;;2.20;1.00;;;28.40;38.20;;;;;;4989720;28;20122;-44
2022/06/29 11:19:13;;;;;;;1.92;1.10;;;28.30;37.70;;;;;;4990568;28;20502;-44
2022/06/29 11:21:39;;;;;;;2.08;1.02;;;28.30;38.50;;;;;;4990070;28;20076;-46
2022/06/29 11:24:05;;;;;;;2.33;1.08;;;28.20;39.20;;;;;;4989690;28;20090;-46
2022/06/29 11:26:32;;;;;;;1.80;0.93;;;28.30;39.20;;;;;;4989185;28;20125;-44
2022/06/29 11:28:59;;;;;;;1.70;1.05;;;28.30;39.60;;;;;;4990261;28;20050;-44
2022/06/29 11:31:26;;;;;;;1.70;1.23;;;28.30;39.70;;;;;;4990245;28;20117;-44
2022/06/29 11:33:53;;;;;;;2.15;1.13;;;28.20;39.70;;;;;;4988220;28;20518;-49
2022/06/29 11:36:32;;;;;;;6.68;1.92;;;28.10;40.10;;;;;;4989685;28;20526;-45
2022/06/29 11:39:06;;;;;;;3.38;1.10;;;28.10;40.80;;;;;;4987837;28;20051;-44
2022/06/29 11:44:36;;;;;;;1.40;1.05;;;28.30;41.80;;;;;;4951590;28;20102;-46
2022/06/29 11:47:08;;;;;;;2.53;1.27;;;28.70;40.20;;;;;;4965187;28;20050;-48
2022/06/29 11:49:39;;;;;;;1.83;1.08;;;28.80;40.20;;;;;;4970912;28;20185;-43
2022/06/29 11:52:08;;;;;;;2.27;1.30;;;29.10;40.30;;;;;;4983508;28;20047;-44
2022/06/29 11:54:49;;;;;;;4.50;1.50;;;29.20;40.80;;;;;;4983919;28;20364;-47
2022/06/29 11:57:17;;;;;;;3.25;1.42;;;29.30;40.30;;;;;;4986518;28;20498;-48
2022/06/29 11:59:44;;;;;;;2.53;1.45;;;29.30;39.70;;;;;;4987722;28;20045;-47
2022/06/29 12:02:12;;;;;;;1.73;1.45;;;29.50;40.10;;;;;;4987013;28;20463;-46
2022/06/29 12:04:38;;;;;;;3.35;1.40;;;29.50;39.20;;;;;;4987382;28;20117;-48
2022/06/29 12:07:08;;;;;;;2.55;1.65;;;29.40;39.10;;;;;;4988516;28;20035;-44
2022/06/29 12:09:34;;;;;;;2.55;1.48;;;29.50;39.10;;;;;;4989252;28;20100;-45
2022/06/29 12:12:00;;;;;;;4.70;1.77;;;29.50;39.60;;;;;;4990120;28;20053;-46
2022/06/29 12:14:26;;;;;;;2.17;1.33;;;29.70;39.40;;;;;;4991708;28;20040;-44
2022/06/29 12:16:52;;;;;;;3.53;1.67;;;29.80;39.20;;;;;;4990016;28;20038;-45
2022/06/29 12:19:18;;;;;;;1.45;1.10;;;30.00;39.20;;;;;;4990144;28;20053;-46
2022/06/29 12:21:44;;;;;;;2.00;1.35;;;30.20;39.70;;;;;;5003436;28;20034;-43
2022/06/29 12:24:09;;;;;;;5.30;1.55;;;30.40;40.00;;;;;;4987371;28;20192;-48
2022/06/29 12:26:35;;;;;;;3.75;1.60;;;30.50;39.80;;;;;;4989251;28;20168;-42
2022/06/29 12:29:01;;;;;;;2.50;1.40;;;30.60;39.10;;;;;;4981539;28;20476;-47
2022/06/29 12:31:26;;;;;;;2.72;1.50;;;30.50;39.10;;;;;;4988440;28;20045;-44
2022/06/29 12:33:52;;;;;;;4.38;1.75;;;30.50;39.00;;;;;;4986487;28;20065;-43
2022/06/29 12:36:18;;;;;;;2.50;1.60;;;30.60;39.50;;;;;;4988678;28;20057;-44
2022/06/29 12:38:43;;;;;;;2.80;1.90;;;30.80;39.80;;;;;;4988107;28;20053;-47
2022/06/29 12:41:09;;;;;;;2.70;1.75;;;30.90;37.80;;;;;;4989387;28;20328;-47
2022/06/29 12:43:35;;;;;;;3.40;1.63;;;30.80;36.90;;;;;;4989089;28;20038;-46
2022/06/29 12:46:01;;;;;;;1.77;1.60;;;30.80;37.80;;;;;;4988911;28;20043;-48
2022/06/29 12:48:27;;;;;;;4.18;1.85;;;30.90;37.90;;;;;;4986195;28;20046;-44
2022/06/29 12:50:53;;;;;;;3.80;1.58;;;31.00;37.10;;;;;;4987589;28;20042;-44
2022/06/29 12:53:19;;;;;;;4.35;1.88;;;31.10;37.60;;;;;;4987733;28;20046;-44
2022/06/29 12:55:45;;;;;;;2.92;1.58;;;31.20;37.50;;;;;;4989938;28;20046;-45
2022/06/29 12:58:10;;;;;;;1.90;1.45;;;31.40;37.60;;;;;;4989328;28;20053;-46
2022/06/29 13:00:36;;;;;;;4.93;1.85;;;31.60;37.60;;;;;;4989077;28;20037;-44
2022/06/29 13:03:02;;;;;;;2.83;1.60;;;31.70;36.90;;;;;;4988311;28;20539;-45
2022/06/29 13:05:28;;;;;;;2.25;1.52;;;31.70;37.00;;;;;;4987315;28;20034;-45
2022/06/29 13:07:54;;;;;;;3.35;1.38;;;31.80;37.20;;;;;;4992845;28;20049;-46
2022/06/29 13:10:20;;;;;;;2.58;1.30;;;31.70;36.20;;;;;;4993026;28;20065;-45
2022/06/29 13:12:45;;;;;;;1.90;1.10;;;31.80;36.30;;;;;;4990355;28;20444;-45
2022/06/29 13:15:11;;;;;;;2.28;1.20;;;31.90;36.30;;;;;;4990602;28;20502;-47